Latest Weather Observations for Bega

IDN60801

Issued at 4:32 pm EST Sunday 30 April 2017 (issued every 30 minutes, with the page automatically refreshed every 10 minutes)

About weather observations | Map of weather stations | Latest weather observations for NSW | Other Formats
Station Details ID: 069139 Name: BEGA AWS Lat: -36.67 Lon: 149.82 Height: 41.0 m
Data from the previous 72 hours. | See also: Recent months at Bega
Date/Time
EST
Temp
°C
App
Temp
°C
Dew
Point
°C
Rel
Hum
%
Delta-T
°C
Wind Press
QNH
hPa
Press
MSL
hPa
Rain since
9am
mm
Dir  Spd
km/h
Gust
km/h
Spd
kts
Gust
kts
30/04:30pm 17.4 15.8 11.4 68 3.3 NE 11 15 6 8 1019.6 1019.5 0.0
30/04:00pm 18.0 15.7 11.6 66 3.5 ENE 15 19 8 10 1019.6 1019.5 0.0
30/03:30pm 18.6 15.7 10.9 61 4.2 ENE 17 22 9 12 1019.7 1019.6 0.0
30/03:00pm 19.4 16.6 11.2 59 4.5 ENE 17 24 9 13 1020.0 1019.9 0.0
30/02:30pm 20.2 17.4 11.4 57 4.9 NE 17 22 9 12 1020.0 1019.9 0.0
30/02:00pm 20.3 16.8 10.1 52 5.5 ENE 19 22 10 12 1020.1 1020.0 0.0
30/01:30pm 20.7 17.9 11.3 55 5.2 E 17 22 9 12 1020.4 1020.3 0.0
30/01:00pm 21.4 20.3 12.0 55 5.3 NNE 9 17 5 9 1020.7 1020.6 0.0
30/12:30pm 20.8 18.3 9.7 49 6.0 NNE 13 17 7 9 1021.1 1021.0 0.0
30/12:00pm 20.9 19.1 10.7 52 5.6 NNE 11 15 6 8 1021.6 1021.5 0.0
30/11:30am 19.7 18.2 9.3 51 5.5 ENE 7 13 4 7 1022.0 1021.9 0.0
30/11:00am 19.3 18.3 10.3 56 4.8 NE 6 9 3 5 1022.4 1022.3 0.0
30/10:30am 18.7 18.2 12.0 65 3.7 ENE 6 9 3 5 1022.7 1022.6 0.0
30/10:00am 17.1 16.2 11.2 68 3.2 NE 7 9 4 5 1022.9 1022.8 0.0
30/09:30am 15.6 15.1 10.8 73 2.6 ENE 4 7 2 4 1023.0 1022.9 0.0
30/09:00am 14.5 13.4 10.1 75 2.3 NE 6 7 3 4 1023.4 1023.3 0.0
30/08:30am 13.1 13.2 10.3 83 1.5 CALM 0 0 0 0 1023.5 1023.4 0.0
30/08:00am 10.4 10.1 8.8 90 0.8 CALM 0 0 0 0 1023.5 1023.4 0.0
30/07:30am 9.7 9.6 9.6 99 0.0 CALM 0 0 0 0 1023.4 1023.3 0.0
30/07:00am 8.6 8.3 8.5 99 0.0 CALM 0 0 0 0 1023.1 1023.0 0.0
30/06:30am 9.0 8.7 8.6 97 0.2 CALM 0 0 0 0 1023.1 1023.0 0.0
30/06:00am 9.7 9.6 9.4 98 0.1 CALM 0 0 0 0 1023.0 1022.9 0.0
30/05:30am 9.6 9.5 9.3 98 0.1 CALM 0 6 0 3 1022.9 1022.8 0.0
30/05:00am 8.9 7.9 8.8 99 0.0 NE 4 7 2 4 1022.9 1022.8 0.0
30/04:30am 9.6 8.8 9.5 99 0.0 WSW 4 7 2 4 1022.6 1022.5 0.0
30/04:00am 8.9 8.6 8.8 99 0.0 CALM 0 0 0 0 1022.6 1022.5 0.0
30/03:30am 8.8 7.7 8.5 98 0.1 ENE 4 7 2 4 1022.5 1022.4 0.0
30/03:00am 8.9 7.4 8.5 97 0.2 NNE 6 9 3 5 1022.6 1022.5 0.0
30/02:30am 9.0 7.5 8.4 96 0.3 E 6 7 3 4 1022.7 1022.6 0.0
30/02:00am 10.0 9.9 9.5 97 0.2 CALM 0 0 0 0 1022.7 1022.6 0.0
30/01:30am 10.5 9.2 9.3 92 0.6 SSW 6 7 3 4 1022.7 1022.6 0.0
30/01:00am 11.2 10.1 9.8 91 0.7 NW 6 9 3 5 1022.6 1022.5 0.0
30/12:30am 11.8 11.9 10.2 90 0.8 CALM 0 4 0 2 1022.6 1022.5 0.0
30/12:00am 12.5 12.6 10.2 86 1.2 CALM 0 0 0 0 1022.5 1022.4 0.0
 
Date/Time
EST
Temp
°C
App
Temp
°C
Dew
Point
°C
Rel
Hum
%
Delta-T
°C
Wind Press
QNH
hPa
Press
MSL
hPa
Rain since
9am
mm
Dir  Spd
km/h
Gust
km/h
Spd
kts
Gust
kts
29/11:30pm 12.1 12.2 10.2 88 1.0 CALM 0 0 0 0 1022.4 1022.3 0.0
29/11:00pm 12.5 12.2 10.2 86 1.2 W 2 7 1 4 1022.6 1022.5 0.0
29/10:30pm 11.6 10.9 9.9 89 0.9 ENE 4 9 2 5 1022.6 1022.5 0.0
29/10:00pm 12.2 11.8 9.9 86 1.2 SW 2 7 1 4 1022.6 1022.5 0.0
29/09:30pm 12.3 11.0 9.3 82 1.5 NNW 6 9 3 5 1022.4 1022.3 0.0
29/09:00pm 13.1 12.3 9.7 80 1.7 W 4 9 2 5 1022.1 1022.0 0.0
29/08:30pm 12.4 12.1 8.7 78 1.8 CALM 0 0 0 0 1021.9 1021.8 0.0
29/08:00pm 12.0 11.3 8.5 79 1.7 ENE 2 7 1 4 1021.5 1021.4 0.0
29/07:30pm 14.3 13.6 8.7 69 2.8 NE 2 6 1 3 1021.2 1021.1 0.0
29/07:00pm 14.0 12.2 7.8 66 3.1 S 7 13 4 7 1020.9 1020.8 0.0
29/06:30pm 15.0 12.8 7.8 62 3.6 SSW 9 11 5 6 1020.5 1020.4 0.0
29/06:00pm 17.2 15.0 7.8 54 4.7 SW 9 13 5 7 1020.0 1019.9 0.0
29/05:30pm 18.4 15.0 7.8 50 5.4 SW 15 20 8 11 1019.7 1019.6 0.0
29/05:00pm 18.5 15.8 9.0 54 5.0 SSW 13 19 7 10 1019.4 1019.3 0.0
29/04:30pm 19.8 17.8 10.2 54 5.2 SW 11 19 6 10 1019.1 1019.0 0.0
29/04:00pm 19.8 17.4 10.2 54 5.2 SSW 13 20 7 11 1018.8 1018.7 0.0
29/03:30pm 20.9 17.8 10.4 51 5.7 SSW 17 24 9 13 1018.4 1018.3 0.0
29/03:00pm 21.5 20.5 12.4 56 5.1 SSW 9 13 5 7 1018.2 1018.1 0.0
29/02:30pm 22.0 21.4 12.3 54 5.5 S 7 13 4 7 1017.9 1017.8 0.0
29/02:00pm 20.8 20.0 11.7 56 5.1 E 7 9 4 5 1017.9 1017.8 0.0
29/01:30pm 20.2 19.2 12.2 60 4.5 SE 9 13 5 7 1018.0 1017.9 0.0
29/01:00pm 20.8 19.1 10.0 50 5.8 WSW 9 11 5 6 1018.1 1018.0 0.0
29/12:30pm 20.6 18.4 10.7 53 5.4 WSW 13 17 7 9 1018.5 1018.4 0.0
29/12:00pm 21.2 17.7 10.1 49 6.0 WSW 19 28 10 15 1018.8 1018.7 0.0
29/11:30am 20.4 17.9 11.1 55 5.1 WSW 15 26 8 14 1019.0 1018.9 0.0
29/11:00am 19.1 20.0 14.1 73 2.9 E 2 7 1 4 1019.3 1019.2 0.0
29/10:30am 15.6 16.0 13.6 88 1.1 SSE 4 9 2 5 1019.8 1019.7 0.0
29/10:00am 11.7 11.6 10.8 94 0.5 S 2 7 1 4 1020.1 1020.0 0.0
29/09:30am 10.3 9.1 9.7 96 0.3 SSW 6 7 3 4 1020.3 1020.2 0.0
29/09:00am 9.3 9.1 9.2 99 0.0 CALM 0 0 0 0 1020.5 1020.4 0.0
29/08:30am 8.5 7.8 8.4 99 0.0 SSW 2 9 1 5 1020.6 1020.5 0.0
29/08:00am 6.8 6.0 6.7 99 0.0 CALM 0 0 0 0 1020.6 1020.5 0.0
29/07:30am 5.5 4.1 5.4 99 0.0 NNE 2 9 1 5 1020.2 1020.1 0.0
29/07:00am 3.7 1.2 3.6 99 0.0 ESE 6 9 3 5 1020.0 1019.9 0.0
29/06:30am 4.2 1.2 4.1 99 0.0 SW 9 13 5 7 1019.4 1019.3 0.0
29/06:00am 3.9 2.2 3.8 99 0.0 ENE 2 7 1 4 1018.9 1018.8 0.0
29/05:30am 4.6 3.0 4.5 99 0.0 WNW 2 6 1 3 1019.2 1019.1 0.0
29/05:00am 3.9 1.4 3.8 99 0.0 SW 6 7 3 4 1019.4 1019.3 0.0
29/04:30am 4.0 2.7 3.9 99 0.0 CALM 0 0 0 0 1019.2 1019.1 0.0
29/04:00am 5.2 3.0 5.1 99 0.0 SW 6 9 3 5 1019.1 1019.0 0.0
29/03:30am 5.1 4.0 5.0 99 0.0 CALM 0 7 0 4 1019.2 1019.1 0.0
29/03:00am 5.5 4.5 5.4 99 0.0 CALM 0 0 0 0 1019.5 1019.4 0.0
29/02:30am 6.4 4.4 6.3 99 0.0 N 6 7 3 4 1019.7 1019.6 0.0
29/02:00am 6.5 5.7 6.4 99 0.0 CALM 0 4 0 2 1020.1 1020.0 0.0
29/01:30am 6.5 5.7 6.4 99 0.0 CALM 0 7 0 4 1020.5 1020.4 0.0
29/01:00am 7.0 6.3 6.9 99 0.0 CALM 0 0 0 0 1020.3 1020.2 0.0
29/12:30am 7.3 6.7 7.2 99 0.0 CALM 0 0 0 0 1020.6 1020.5 0.0
29/12:00am 7.1 5.2 6.8 98 0.1 SSW 6 7 3 4 1020.7 1020.6 0.0
 
Date/Time
EST
Temp
°C
App
Temp
°C
Dew
Point
°C
Rel
Hum
%
Delta-T
°C
Wind Press
QNH
hPa
Press
MSL
hPa
Rain since
9am
mm
Dir  Spd
km/h
Gust
km/h
Spd
kts
Gust
kts
28/11:30pm 7.8 7.2 7.4 97 0.2 CALM 0 0 0 0 1020.7 1020.6 0.0
28/11:00pm 8.1 7.5 7.5 96 0.3 CALM 0 0 0 0 1020.8 1020.7 0.0
28/10:30pm 8.2 7.6 7.6 96 0.3 CALM 0 0 0 0 1021.0 1020.9 0.0
28/10:00pm 8.9 8.5 8.1 95 0.4 CALM 0 0 0 0 1021.0 1020.9 0.0
28/09:30pm 9.4 9.1 8.5 94 0.4 CALM 0 0 0 0 1020.9 1020.8 0.0
28/09:00pm 9.6 9.3 8.7 94 0.4 CALM 0 0 0 0 1020.7 1020.6 0.0
28/08:30pm 9.7 9.0 8.5 92 0.6 SSW 2 7 1 4 1020.8 1020.7 0.0
28/08:00pm 10.7 10.4 8.6 87 1.0 CALM 0 0 0 0 1020.6 1020.5 0.0
28/07:30pm 11.3 10.9 8.3 82 1.5 CALM 0 2 0 1 1020.7 1020.6 0.0
28/07:00pm 13.7 12.5 9.4 75 2.2 NW 6 7 3 4 1020.6 1020.5 0.0
28/06:30pm 14.4 14.3 9.4 72 2.6 CALM 0 0 0 0 1020.5 1020.4 0.0
28/06:00pm 15.0 14.8 9.1 68 3.0 CALM 0 6 0 3 1020.1 1020.0 0.0
28/05:30pm 15.6 14.3 9.1 65 3.3 ENE 6 9 3 5 1019.8 1019.7 0.0
28/05:00pm 16.6 15.0 8.6 59 4.1 N 7 9 4 5 1019.5 1019.4 0.0
28/04:30pm 18.1 16.5 8.9 55 4.8 NE 7 9 4 5 1019.3 1019.2 0.0
28/04:00pm 19.5 17.8 7.6 46 6.1 E 6 7 3 4 1019.5 1019.4 0.0
28/03:30pm 19.2 17.6 7.9 48 5.8 SSE 6 7 3 4 1019.3 1019.2 0.0
28/03:00pm 20.3 19.2 8.3 46 6.2 SSW 4 9 2 5 1019.6 1019.5 0.0
28/02:30pm 19.8 17.5 7.5 45 6.3 WSW 9 15 5 8 1019.8 1019.7 0.0
28/02:00pm 19.9 18.0 8.9 49 5.8 SSW 9 15 5 8 1019.9 1019.8 0.0
28/01:30pm 19.2 16.1 7.3 46 6.0 SSW 13 20 7 11 1020.0 1019.9 0.0
28/01:00pm 19.2 16.4 7.0 45 6.1 WSW 11 20 6 11 1020.5 1020.4 0.0
28/12:30pm 19.2 16.7 8.2 49 5.7 WSW 11 17 6 9 1021.0 1020.9 0.0
28/12:00pm 18.3 15.3 7.7 50 5.4 SSW 13 20 7 11 1021.6 1021.5 0.0
28/11:30am 17.9 14.4 7.3 50 5.3 SW 15 20 8 11 1022.1 1022.0 0.0
28/11:00am 17.6 14.5 7.4 51 5.1 WSW 13 19 7 10 1022.5 1022.4 0.0
28/10:30am 16.9 12.5 6.7 51 5.0 WSW 19 24 10 13 1022.5 1022.4 0.0
28/10:00am 16.4 12.1 7.1 54 4.6 WSW 19 26 10 14 1022.6 1022.5 0.0
28/09:30am 15.6 12.0 6.6 55 4.4 WSW 15 24 8 13 1022.6 1022.5 0.0
28/09:00am 13.9 13.8 9.5 75 2.2 CALM 0 6 0 3 1022.6 1022.5 0.0
28/08:30am 12.1 11.5 7.6 74 2.2 CALM 0 0 0 0 1022.5 1022.4 0.0
28/08:00am 11.0 9.5 6.7 75 2.0 NE 4 9 2 5 1022.1 1022.0 0.0
28/07:30am 8.9 7.5 5.6 80 1.5 NW 2 7 1 4 1021.9 1021.8 0.0
28/07:00am 7.7 6.2 5.0 83 1.2 ENE 2 7 1 4 1021.6 1021.5 0.0
28/06:30am 7.8 5.3 4.7 81 1.4 NNE 7 9 4 5 1021.3 1021.2 0.0
28/06:00am 7.9 5.5 4.3 78 1.6 NE 6 7 3 4 1021.1 1021.0 0.0
28/05:30am 9.7 7.4 4.7 71 2.2 NNE 6 9 3 5 1021.0 1020.9 0.0
28/05:00am 11.8 8.5 4.3 60 3.4 W 11 22 6 12 1020.9 1020.8 0.0
28/04:30am 11.0 8.1 4.7 65 2.9 WSW 9 15 5 8 1020.8 1020.7 0.0
28/04:00am 8.8 6.3 4.8 76 1.8 NE 7 13 4 7 1020.8 1020.7 0.0
28/03:30am 11.3 8.4 4.5 63 3.1 WSW 9 20 5 11 1020.8 1020.7 0.0
28/03:00am 9.6 7.1 4.0 68 2.5 S 6 13 3 7 1020.7 1020.6 0.0
28/02:30am 10.2 6.4 4.1 66 2.7 W 13 19 7 10 1020.8 1020.7 0.0
28/02:00am 8.7 6.1 4.1 73 2.0 SSW 7 13 4 7 1021.1 1021.0 0.0
28/01:30am 7.9 5.3 3.2 72 2.0 SSW 6 11 3 6 1021.0 1020.9 0.0
28/01:00am 8.9 5.6 4.3 73 2.0 WSW 11 17 6 9 1021.0 1020.9 0.0
28/12:30am 7.3 5.6 3.9 79 1.5 WSW 2 9 1 5 1021.0 1020.9 0.0
28/12:00am 6.3 4.2 3.8 84 1.1 S 4 7 2 4 1021.3 1021.2 0.0
 
Date/Time
EST
Temp
°C
App
Temp
°C
Dew
Point
°C
Rel
Hum
%
Delta-T
°C
Wind Press
QNH
hPa
Press
MSL
hPa
Rain since
9am
mm
Dir  Spd
km/h
Gust
km/h
Spd
kts
Gust
kts
27/11:30pm 9.5 6.1 4.1 69 2.4 W 11 19 6 10 1021.2 1021.1 0.0
27/11:00pm 7.4 4.9 3.8 78 1.5 WSW 6 9 3 5 1021.3 1021.2 0.0
27/10:30pm 10.1 7.4 3.8 65 2.8 WNW 7 11 4 6 1021.5 1021.4 0.0
27/10:00pm 10.6 6.8 4.1 64 2.9 WSW 13 20 7 11 1021.2 1021.1 0.0
27/09:30pm 9.9 6.0 3.6 65 2.8 WSW 13 17 7 9 1021.4 1021.3 0.0
27/09:00pm 10.2 6.3 3.5 63 2.9 W 13 17 7 9 1021.2 1021.1 0.0
27/08:30pm 10.5 6.6 3.5 62 3.1 W 13 19 7 10 1021.1 1021.0 0.0
27/08:00pm 10.2 5.9 3.5 63 2.9 WSW 15 19 8 10 1021.0 1020.9 0.0
27/07:30pm 11.3 7.4 3.3 58 3.5 WSW 13 20 7 11 1020.8 1020.7 0.0
27/07:00pm 11.7 7.2 4.0 59 3.4 WSW 17 28 9 15 1020.4 1020.3 0.0
27/06:30pm 11.6 7.5 4.3 61 3.3 WSW 15 20 8 11 1020.0 1019.9 0.0
27/06:00pm 11.5 8.2 4.5 62 3.2 SW 11 15 6 8 1019.8 1019.7 0.0
27/05:30pm 12.1 8.3 4.1 58 3.6 SW 13 17 7 9 1019.3 1019.2 0.0
27/05:00pm 13.5 6.9 4.1 53 4.3 SW 28 37 15 20 1018.9 1018.8 0.0

Other Formats:

Comma delimited format used in spreadsheet applications
http://www.bom.gov.au/fwo/IDN60801/IDN60801.95931.axf

JavaScript Object Notation format (JSON) in row-major order
http://www.bom.gov.au/fwo/IDN60801/IDN60801.95931.json